Time;durP1;ratioP1;P1;durP2;ratioP2;P2;SDS_P1;SDS_P2;PMS_P1;PMS_P2;Temp;Humidity;BMP_temperature;BMP_pressure;BME280_temperature;BME280_humidity;BME280_pressure;Samples;Min_cycle;Max_cycle;Signal;HPM_P1;HPM_P2
2022/06/28 00:01:40;;;;;;;2.03;1.92;;;17.60;99.90;;;;;;4966007;28;20023;-82
2022/06/28 00:04:20;;;;;;;2.00;1.90;;;17.70;99.90;;;;;;4981820;28;20046;-82
2022/06/28 00:06:47;;;;;;;1.80;1.70;;;17.80;99.90;;;;;;4982766;28;20037;-81
2022/06/28 00:09:14;;;;;;;2.47;2.20;;;17.70;99.90;;;;;;4983483;28;20046;-83
2022/06/28 00:11:42;;;;;;;1.88;1.77;;;17.70;99.90;;;;;;4982377;28;20027;-83
2022/06/28 00:16:54;;;;;;;1.65;1.55;;;17.60;99.90;;;;;;4980879;28;20089;-83
2022/06/28 00:19:20;;;;;;;1.80;1.70;;;17.60;99.90;;;;;;4980508;28;20030;-84
2022/06/28 00:21:46;;;;;;;1.80;1.70;;;17.60;99.90;;;;;;4963380;28;20033;-82
2022/06/28 00:24:12;;;;;;;1.95;1.85;;;17.70;99.90;;;;;;4980690;28;20472;-82
2022/06/28 00:26:38;;;;;;;2.40;2.20;;;17.70;99.90;;;;;;4980763;28;20037;-82
2022/06/28 00:29:03;;;;;;;2.58;2.40;;;17.60;99.90;;;;;;4989510;28;20364;-83
2022/06/28 00:31:29;;;;;;;2.50;2.30;;;17.70;99.90;;;;;;4999594;28;20418;-82
2022/06/28 00:33:55;;;;;;;2.10;2.00;;;17.60;99.90;;;;;;4981348;28;20041;-83
2022/06/28 00:36:21;;;;;;;2.13;2.03;;;17.60;99.90;;;;;;4999428;28;20491;-83
2022/06/28 00:38:46;;;;;;;2.00;1.90;;;17.70;99.90;;;;;;4981875;28;20037;-81
2022/06/28 00:41:12;;;;;;;2.88;2.67;;;17.60;99.90;;;;;;4999622;28;20030;-82
2022/06/28 00:43:38;;;;;;;3.28;3.08;;;17.60;99.90;;;;;;5000245;28;20046;-82
2022/06/28 00:46:04;;;;;;;3.17;2.97;;;17.60;99.90;;;;;;5001566;28;20030;-82
2022/06/28 00:48:30;;;;;;;3.67;3.38;;;17.60;99.90;;;;;;5017268;28;20027;-83
2022/06/28 00:50:56;;;;;;;3.50;3.25;;;17.50;99.90;;;;;;5018245;28;20015;-83
2022/06/28 00:53:21;;;;;;;3.65;3.20;;;17.50;99.90;;;;;;5019183;28;20019;-81
2022/06/28 00:55:48;;;;;;;3.67;3.38;;;17.50;99.90;;;;;;5019437;28;20042;-82
2022/06/28 00:58:15;;;;;;;3.45;3.15;;;17.50;99.90;;;;;;5019468;28;20094;-83
2022/06/28 01:00:43;;;;;;;3.70;3.40;;;17.50;99.90;;;;;;5019493;28;20034;-82
2022/06/28 01:03:12;;;;;;;2.92;2.72;;;17.50;99.90;;;;;;5007494;28;20025;-83
2022/06/28 01:05:38;;;;;;;3.10;2.90;;;17.50;99.90;;;;;;4996878;28;20030;-80
2022/06/28 01:08:05;;;;;;;3.03;2.70;;;17.50;99.90;;;;;;4998374;28;20577;-82
2022/06/28 01:10:31;;;;;;;3.08;2.80;;;17.50;99.90;;;;;;4998802;28;20023;-83
2022/06/28 01:12:57;;;;;;;2.83;2.63;;;17.50;99.90;;;;;;4988886;28;20030;-82
2022/06/28 01:15:23;;;;;;;2.70;2.50;;;17.40;99.90;;;;;;4979367;28;20490;-82
2022/06/28 01:17:49;;;;;;;2.92;2.72;;;17.40;99.90;;;;;;4978266;28;20054;-83
2022/06/28 01:20:14;;;;;;;3.33;3.03;;;17.40;99.90;;;;;;4995800;28;20134;-82
2022/06/28 01:22:42;;;;;;;3.55;3.25;;;17.40;99.90;;;;;;4977671;28;20054;-83
2022/06/28 01:25:09;;;;;;;2.70;2.60;;;17.40;99.90;;;;;;4960027;28;20023;-82
2022/06/28 01:27:35;;;;;;;2.78;2.58;;;17.40;99.90;;;;;;4985512;28;20037;-82
2022/06/28 01:30:03;;;;;;;2.42;2.28;;;17.40;99.90;;;;;;4962309;28;20344;-82
2022/06/28 01:32:29;;;;;;;3.33;3.13;;;17.40;99.90;;;;;;4978431;28;20499;-82
2022/06/28 01:34:54;;;;;;;3.58;3.28;;;17.40;99.90;;;;;;4978039;28;20049;-82
2022/06/28 01:37:20;;;;;;;3.22;3.00;;;17.40;99.90;;;;;;4979385;28;20027;-83
2022/06/28 01:39:46;;;;;;;3.50;3.22;;;17.40;99.90;;;;;;4962200;28;20313;-82
2022/06/28 01:42:12;;;;;;;3.10;2.90;;;17.40;99.90;;;;;;4963011;28;20367;-82
2022/06/28 01:44:40;;;;;;;3.33;3.13;;;17.30;99.90;;;;;;4997177;28;20080;-81
2022/06/28 01:47:07;;;;;;;2.83;2.63;;;17.30;99.90;;;;;;5004865;28;20019;-80
2022/06/28 01:49:32;;;;;;;2.80;2.60;;;17.30;99.90;;;;;;5003888;28;20023;-82
2022/06/28 01:51:58;;;;;;;2.83;2.63;;;17.30;99.90;;;;;;5004609;28;20033;-82
2022/06/28 01:54:25;;;;;;;2.72;2.53;;;17.30;99.90;;;;;;5005398;28;20101;-82
2022/06/28 01:56:51;;;;;;;2.47;2.38;;;17.40;99.90;;;;;;5003897;28;20081;-82
2022/06/28 01:59:17;;;;;;;2.50;2.30;;;17.40;99.90;;;;;;4996497;28;20054;-82
2022/06/28 02:01:43;;;;;;;2.08;1.98;;;17.40;99.90;;;;;;4987309;28;20042;-81
2022/06/28 02:04:26;;;;;;;2.13;2.03;;;17.40;99.90;;;;;;5004312;28;20391;-81
2022/06/28 02:06:52;;;;;;;1.90;1.80;;;17.50;99.90;;;;;;5005005;28;20028;-82
2022/06/28 02:09:18;;;;;;;2.20;2.00;;;17.50;99.90;;;;;;5004563;28;20121;-81
2022/06/28 02:11:44;;;;;;;1.85;1.75;;;17.50;99.90;;;;;;4986669;28;20030;-83
2022/06/28 02:14:10;;;;;;;1.60;1.58;;;17.50;99.90;;;;;;5004180;28;20030;-82
2022/06/28 02:16:36;;;;;;;1.90;1.80;;;17.50;99.90;;;;;;4982647;28;20117;-82
2022/06/28 02:19:02;;;;;;;1.80;1.70;;;17.40;99.90;;;;;;4987942;28;20045;-82
2022/06/28 02:21:28;;;;;;;1.70;1.60;;;17.40;99.90;;;;;;4984128;28;20023;-82
2022/06/28 02:23:53;;;;;;;1.75;1.65;;;17.50;99.90;;;;;;4983567;28;20049;-82
2022/06/28 02:26:19;;;;;;;1.60;1.50;;;17.40;99.90;;;;;;4981602;28;20023;-82
2022/06/28 02:28:45;;;;;;;2.05;1.95;;;17.40;99.90;;;;;;4994104;28;20074;-81
2022/06/28 02:31:12;;;;;;;2.60;2.40;;;17.40;99.90;;;;;;4999534;28;20026;-81
2022/06/28 02:33:39;;;;;;;2.60;2.40;;;17.30;99.90;;;;;;5000727;28;20032;-82
2022/06/28 02:41:34;;;;;;;2.63;2.42;;;17.40;99.90;;;;;;5001750;28;20089;-81
2022/06/28 02:44:00;;;;;;;3.03;2.83;;;17.40;99.90;;;;;;5000839;28;20069;-82
2022/06/28 02:46:26;;;;;;;2.50;2.40;;;17.40;99.90;;;;;;4998895;28;20034;-83
2022/06/28 02:48:51;;;;;;;3.00;2.80;;;17.30;99.90;;;;;;4996932;28;20460;-82
2022/06/28 02:51:17;;;;;;;3.83;2.67;;;17.30;99.90;;;;;;4998958;28;20050;-82
2022/06/28 02:53:42;;;;;;;4.38;3.97;;;17.30;99.90;;;;;;4998942;28;20168;-82
2022/06/28 02:56:08;;;;;;;5.05;4.05;;;17.30;99.90;;;;;;4998675;28;20026;-83
2022/06/28 02:58:34;;;;;;;3.72;3.42;;;17.40;99.90;;;;;;4987160;28;20038;-82
2022/06/28 03:00:59;;;;;;;4.30;4.00;;;17.40;99.90;;;;;;4983682;28;20081;-82
2022/06/28 03:03:25;;;;;;;3.65;3.40;;;17.30;99.90;;;;;;4989684;28;20041;-81
2022/06/28 03:05:51;;;;;;;3.47;3.20;;;17.40;99.90;;;;;;5018274;28;20054;-81
2022/06/28 03:08:17;;;;;;;3.53;3.20;;;17.40;99.90;;;;;;5016887;28;20034;-82
2022/06/28 03:10:42;;;;;;;3.70;3.40;;;17.40;99.90;;;;;;4995602;28;20102;-82
2022/06/28 03:13:08;;;;;;;4.00;3.70;;;17.30;99.90;;;;;;5007645;28;20050;-82
2022/06/28 03:15:34;;;;;;;3.55;3.30;;;17.30;99.90;;;;;;5007439;28;20031;-82
2022/06/28 03:18:00;;;;;;;3.90;3.60;;;17.30;99.90;;;;;;5012013;28;20022;-81
2022/06/28 03:20:26;;;;;;;3.95;3.65;;;17.30;99.90;;;;;;5015877;28;20073;-84
2022/06/28 03:22:52;;;;;;;3.25;3.05;;;17.30;99.90;;;;;;4976185;28;20026;-81
2022/06/28 03:25:18;;;;;;;3.42;3.17;;;17.30;99.90;;;;;;4987896;28;20027;-82
2022/06/28 03:27:43;;;;;;;3.33;3.05;;;17.30;99.90;;;;;;4995078;28;20450;-81
2022/06/28 03:30:09;;;;;;;5.43;4.63;;;17.40;99.90;;;;;;5000176;28;20070;-81
2022/06/28 03:32:35;;;;;;;4.38;4.07;;;17.40;99.90;;;;;;5004342;28;20026;-82
2022/06/28 03:35:01;;;;;;;4.10;3.80;;;17.40;99.90;;;;;;5003096;28;20034;-83
2022/06/28 03:37:26;;;;;;;4.45;4.05;;;17.30;99.90;;;;;;5004169;28;20137;-83
2022/06/28 03:39:52;;;;;;;4.72;4.20;;;17.30;99.90;;;;;;5003522;28;20490;-84
2022/06/28 03:42:18;;;;;;;4.35;4.05;;;17.30;99.90;;;;;;5002491;28;20090;-85
2022/06/28 03:44:43;;;;;;;4.63;4.22;;;17.40;99.90;;;;;;4983945;28;20454;-85
2022/06/28 03:47:09;;;;;;;5.07;4.43;;;17.40;99.90;;;;;;4983380;28;20114;-84
2022/06/28 03:49:35;;;;;;;4.82;4.40;;;17.40;99.90;;;;;;4997566;28;20058;-82
2022/06/28 03:52:00;;;;;;;5.03;4.57;;;17.40;99.90;;;;;;5002923;28;20037;-83
2022/06/28 03:54:27;;;;;;;5.05;4.65;;;17.40;99.90;;;;;;5004016;28;20026;-85
2022/06/28 03:56:53;;;;;;;4.50;4.18;;;17.30;99.90;;;;;;4993393;28;20015;-85
2022/06/28 03:59:18;;;;;;;5.35;4.55;;;17.40;99.90;;;;;;4992278;28;20102;-85
2022/06/28 04:01:44;;;;;;;4.85;4.45;;;17.40;99.90;;;;;;4990688;28;20102;-85
2022/06/28 04:04:10;;;;;;;4.75;4.35;;;17.40;99.90;;;;;;4988465;28;20186;-85
2022/06/28 04:06:35;;;;;;;4.47;4.18;;;17.40;99.90;;;;;;4971932;28;20035;-85
2022/06/28 04:09:01;;;;;;;5.78;5.22;;;17.40;99.90;;;;;;4986573;28;20475;-86
2022/06/28 04:11:27;;;;;;;4.90;4.50;;;17.50;99.90;;;;;;4987506;28;20487;-84
2022/06/28 04:13:54;;;;;;;4.10;3.72;;;17.50;99.90;;;;;;4987862;28;20098;-86
2022/06/28 04:16:21;;;;;;;4.82;4.43;;;17.50;99.90;;;;;;5003649;28;20029;-86
2022/06/28 04:18:47;;;;;;;5.75;5.25;;;17.50;99.90;;;;;;5002937;28;20029;-86
2022/06/28 04:21:15;;;;;;;5.68;5.18;;;17.60;99.90;;;;;;5003343;28;20109;-86
2022/06/28 04:23:42;;;;;;;4.05;3.75;;;17.60;99.90;;;;;;4985382;28;20045;-86
2022/06/28 04:26:08;;;;;;;5.15;4.70;;;17.70;99.90;;;;;;5003007;28;20552;-84
2022/06/28 04:28:34;;;;;;;6.70;6.10;;;17.80;99.90;;;;;;4981487;28;20088;-86
2022/06/28 04:31:00;;;;;;;7.70;6.70;;;17.90;99.90;;;;;;5000750;28;20030;-86
2022/06/28 04:33:27;;;;;;;6.55;5.93;;;17.90;99.90;;;;;;4999303;28;20050;-84
2022/06/28 04:35:53;;;;;;;8.10;5.05;;;17.90;99.90;;;;;;4963580;28;20030;-83
2022/06/28 04:38:19;;;;;;;6.28;5.65;;;18.00;99.90;;;;;;4982524;28;20022;-83
2022/06/28 04:40:45;;;;;;;6.68;5.72;;;18.00;99.90;;;;;;4982653;28;20079;-83
2022/06/28 04:43:10;;;;;;;7.35;6.65;;;18.10;99.90;;;;;;4966510;28;20138;-82
2022/06/28 04:45:37;;;;;;;6.55;5.95;;;18.10;99.90;;;;;;4991364;28;20034;-83
2022/06/28 04:48:03;;;;;;;8.13;6.93;;;18.10;99.90;;;;;;4985328;28;20171;-82
2022/06/28 04:50:29;;;;;;;6.35;5.72;;;18.20;99.90;;;;;;5004303;28;20077;-83
2022/06/28 04:52:54;;;;;;;7.80;6.70;;;18.30;99.90;;;;;;4985735;28;20402;-83
2022/06/28 04:55:20;;;;;;;6.80;6.20;;;18.50;99.90;;;;;;4999225;28;20380;-83
2022/06/28 04:57:46;;;;;;;6.65;6.05;;;18.70;99.90;;;;;;4982335;28;20026;-82
2022/06/28 05:00:12;;;;;;;7.53;6.65;;;18.90;99.90;;;;;;5013000;28;20022;-82
2022/06/28 05:02:39;;;;;;;6.55;5.95;;;19.10;99.90;;;;;;5013476;28;20030;-82
2022/06/28 05:05:05;;;;;;;5.63;5.13;;;19.30;99.90;;;;;;5000930;28;20026;-83
2022/06/28 05:07:34;;;;;;;5.78;5.20;;;19.20;99.90;;;;;;4984648;28;20027;-83
2022/06/28 05:10:00;;;;;;;6.38;5.78;;;19.10;99.90;;;;;;5006563;28;20546;-82
2022/06/28 05:12:26;;;;;;;8.10;5.90;;;18.90;99.90;;;;;;5000133;28;20030;-82
2022/06/28 05:14:52;;;;;;;6.55;5.53;;;18.70;99.90;;;;;;5007704;28;20030;-83
2022/06/28 05:17:18;;;;;;;5.88;5.30;;;18.60;99.90;;;;;;5001019;28;20032;-83
2022/06/28 05:19:44;;;;;;;6.50;5.57;;;18.60;99.90;;;;;;4999444;28;20060;-82
2022/06/28 05:22:10;;;;;;;6.20;5.68;;;18.60;99.90;;;;;;4995204;28;20033;-83
2022/06/28 05:24:37;;;;;;;5.07;4.68;;;18.60;99.90;;;;;;4978791;28;20015;-85
2022/06/28 05:27:03;;;;;;;8.63;6.05;;;18.60;99.90;;;;;;4963589;28;20031;-83
2022/06/28 05:29:29;;;;;;;5.82;5.22;;;18.60;99.90;;;;;;4989527;28;20098;-83
2022/06/28 05:31:56;;;;;;;5.35;4.82;;;18.80;99.90;;;;;;4999769;28;20033;-84
2022/06/28 05:34:22;;;;;;;4.45;4.05;;;20.40;99.90;;;;;;5000856;28;20157;-82
2022/06/28 05:36:47;;;;;;;3.33;3.05;;;22.70;99.90;;;;;;4998334;28;20022;-82
2022/06/28 05:39:13;;;;;;;2.58;2.38;;;24.50;99.90;;;;;;4996683;28;20046;-83
2022/06/28 05:41:41;;;;;;;2.75;2.53;;;25.90;99.90;;;;;;4997241;28;20053;-81
2022/06/28 05:44:08;;;;;;;3.17;2.63;;;27.00;94.50;;;;;;4996693;28;20043;-85
2022/06/28 05:46:33;;;;;;;2.50;2.30;;;27.40;93.00;;;;;;4979542;28;20070;-85
2022/06/28 05:48:59;;;;;;;2.75;2.55;;;27.60;91.00;;;;;;4997496;28;20034;-86
2022/06/28 05:51:25;;;;;;;3.08;2.88;;;27.90;90.50;;;;;;4997060;28;20031;-85
2022/06/28 05:53:50;;;;;;;2.55;2.35;;;27.90;90.40;;;;;;5005855;28;20029;-84
2022/06/28 05:56:17;;;;;;;2.50;2.33;;;27.50;93.00;;;;;;4998304;28;20041;-85
2022/06/28 05:58:42;;;;;;;2.50;2.30;;;27.00;92.70;;;;;;5007658;28;20030;-86
2022/06/28 06:01:08;;;;;;;3.55;3.20;;;25.90;93.40;;;;;;5014941;28;20026;-85
2022/06/28 06:03:34;;;;;;;5.07;2.80;;;24.40;94.20;;;;;;5001691;28;20498;-84
2022/06/28 06:06:00;;;;;;;3.33;3.03;;;23.10;97.90;;;;;;5001051;28;20054;-84
2022/06/28 06:08:25;;;;;;;2.75;2.50;;;22.40;99.90;;;;;;5000338;28;20100;-84
2022/06/28 06:10:51;;;;;;;5.20;2.63;;;22.20;99.90;;;;;;4990032;28;20038;-85
2022/06/28 06:13:17;;;;;;;3.55;2.97;;;23.80;99.90;;;;;;4981397;28;20081;-84
2022/06/28 06:15:42;;;;;;;2.85;2.65;;;25.80;99.90;;;;;;4981725;28;20511;-85
2022/06/28 06:18:08;;;;;;;4.75;2.20;;;27.30;95.30;;;;;;4981851;28;20027;-85
2022/06/28 06:20:34;;;;;;;4.30;3.00;;;28.60;87.00;;;;;;4982720;28;20030;-84
2022/06/28 06:22:59;;;;;;;2.65;2.33;;;29.20;79.30;;;;;;4981726;28;20031;-85
2022/06/28 06:25:25;;;;;;;2.33;2.22;;;29.40;77.70;;;;;;4964082;28;20042;-85
2022/06/28 06:27:51;;;;;;;3.05;2.65;;;29.40;75.40;;;;;;4993634;28;20087;-85
2022/06/28 06:30:16;;;;;;;3.03;2.30;;;28.10;73.10;;;;;;4999813;28;20094;-85
2022/06/28 06:32:42;;;;;;;2.40;2.22;;;26.10;76.10;;;;;;4998964;28;20045;-85
2022/06/28 06:35:08;;;;;;;3.72;2.30;;;25.10;84.70;;;;;;4999818;28;20023;-84
2022/06/28 06:37:35;;;;;;;2.35;2.15;;;25.00;86.80;;;;;;4999082;28;20034;-85
2022/06/28 06:40:00;;;;;;;3.38;2.60;;;26.70;83.70;;;;;;5005397;28;20509;-84
2022/06/28 06:42:26;;;;;;;2.40;2.20;;;28.20;79.30;;;;;;5006970;28;20061;-84
2022/06/28 06:44:52;;;;;;;4.43;2.33;;;29.00;74.70;;;;;;4994843;28;20035;-84
2022/06/28 06:47:18;;;;;;;5.78;2.60;;;29.10;71.10;;;;;;4985947;28;20030;-84
2022/06/28 06:49:43;;;;;;;1.13;1.13;;;29.50;66.70;;;;;;4995685;28;20059;-84
2022/06/28 06:52:09;;;;;;;1.77;1.67;;;30.70;63.90;;;;;;4994853;28;20080;-85
2022/06/28 06:54:35;;;;;;;1.83;1.73;;;31.50;59.60;;;;;;4979602;28;20043;-84
2022/06/28 06:57:00;;;;;;;2.97;2.03;;;31.60;58.00;;;;;;4998157;28;20029;-84
2022/06/28 06:59:26;;;;;;;2.85;2.03;;;32.00;56.40;;;;;;5010884;28;20074;-84
2022/06/28 07:01:52;;;;;;;2.28;2.03;;;31.90;55.30;;;;;;5000003;28;20034;-85
2022/06/28 07:04:17;;;;;;;2.55;2.30;;;30.60;54.60;;;;;;4983137;28;20052;-84
2022/06/28 07:06:44;;;;;;;3.05;2.22;;;28.00;59.10;;;;;;4982408;28;20061;-85
2022/06/28 07:09:12;;;;;;;2.55;2.35;;;27.60;61.90;;;;;;4982345;28;20428;-84
2022/06/28 07:11:38;;;;;;;5.32;2.20;;;28.40;61.00;;;;;;4999105;28;20035;-84
2022/06/28 07:14:04;;;;;;;2.88;2.10;;;29.80;59.40;;;;;;4999662;28;20026;-85
2022/06/28 07:16:29;;;;;;;2.83;2.30;;;30.60;57.40;;;;;;4999477;28;20114;-85
2022/06/28 07:18:55;;;;;;;3.25;2.90;;;31.00;55.50;;;;;;4999611;28;20046;-84
2022/06/28 07:21:21;;;;;;;3.83;2.30;;;31.20;54.00;;;;;;5002239;28;20073;-84
2022/06/28 07:23:47;;;;;;;4.30;2.20;;;30.40;53.10;;;;;;5003925;28;20031;-84
2022/06/28 07:26:13;;;;;;;3.15;1.48;;;28.20;55.90;;;;;;4983505;28;20028;-84
2022/06/28 07:28:38;;;;;;;2.97;2.15;;;26.60;60.70;;;;;;4988440;28;20546;-84
2022/06/28 07:31:04;;;;;;;1.90;1.75;;;25.90;62.10;;;;;;4983007;28;20090;-85
2022/06/28 07:33:30;;;;;;;4.40;1.95;;;25.40;64.30;;;;;;4982706;28;20022;-85
2022/06/28 07:35:56;;;;;;;4.05;2.40;;;25.00;66.70;;;;;;5000131;28;20058;-84
2022/06/28 07:38:22;;;;;;;2.13;1.73;;;24.30;69.10;;;;;;4982848;28;20027;-84
2022/06/28 07:40:47;;;;;;;3.95;2.70;;;23.70;71.90;;;;;;4988415;28;20052;-84
2022/06/28 07:43:13;;;;;;;3.03;2.75;;;23.50;70.30;;;;;;5014991;28;20034;-85
2022/06/28 07:45:40;;;;;;;3.75;2.42;;;23.50;70.70;;;;;;5015594;28;20026;-85
2022/06/28 07:48:07;;;;;;;1.60;1.50;;;23.40;71.30;;;;;;5017794;28;20099;-85
2022/06/28 07:53:18;;;;;;;1.60;1.30;;;23.50;72.70;;;;;;4999684;28;20069;-84
2022/06/28 07:55:44;;;;;;;2.20;2.00;;;23.80;72.00;;;;;;5323666;22;20068;-85
2022/06/28 07:58:10;;;;;;;2.45;2.20;;;24.00;70.70;;;;;;5021282;28;20097;-85
2022/06/28 08:00:35;;;;;;;3.65;1.80;;;23.90;68.50;;;;;;5037769;28;20041;-86
2022/06/28 08:03:01;;;;;;;1.70;1.60;;;23.80;70.40;;;;;;5038868;28;20043;-84
2022/06/28 08:05:27;;;;;;;1.40;1.30;;;23.80;70.70;;;;;;5021392;28;20086;-84
2022/06/28 08:07:52;;;;;;;1.67;1.58;;;24.00;69.50;;;;;;5021829;28;20025;-84
2022/06/28 08:10:18;;;;;;;1.95;1.73;;;24.30;69.50;;;;;;5048671;28;20036;-85
2022/06/28 08:12:44;;;;;;;2.65;1.75;;;24.30;69.80;;;;;;5048472;28;20036;-86
2022/06/28 08:15:11;;;;;;;4.53;1.50;;;24.20;70.40;;;;;;5044490;28;20100;-85
2022/06/28 08:17:39;;;;;;;4.20;2.25;;;23.90;70.60;;;;;;5026095;28;20034;-86
2022/06/28 08:20:06;;;;;;;2.92;1.83;;;23.50;71.60;;;;;;5043487;28;20026;-84
2022/06/28 08:22:37;;;;;;;1.70;1.60;;;23.30;71.70;;;;;;5044897;28;20113;-84
2022/06/28 08:25:03;;;;;;;2.10;1.90;;;23.10;74.70;;;;;;5024174;28;20022;-85
2022/06/28 08:27:29;;;;;;;2.20;2.00;;;23.10;74.70;;;;;;5013104;28;20113;-85
2022/06/28 08:29:55;;;;;;;2.90;1.90;;;23.10;75.20;;;;;;5022177;28;20394;-85
2022/06/28 08:32:22;;;;;;;2.10;2.00;;;23.20;75.00;;;;;;5022662;28;20029;-85
2022/06/28 08:34:48;;;;;;;4.68;1.65;;;23.10;72.80;;;;;;5022010;28;20037;-85
2022/06/28 08:37:14;;;;;;;2.10;1.90;;;23.00;74.60;;;;;;5022126;28;20021;-84
2022/06/28 08:39:40;;;;;;;2.47;1.90;;;23.00;74.20;;;;;;5022460;28;20034;-85
2022/06/28 08:42:07;;;;;;;1.63;1.52;;;23.00;73.30;;;;;;5022562;28;20131;-85
2022/06/28 08:44:35;;;;;;;2.80;1.48;;;23.00;72.50;;;;;;5003730;28;20040;-84
2022/06/28 08:47:02;;;;;;;1.95;1.55;;;23.10;73.80;;;;;;5022921;28;20041;-84
2022/06/28 08:50:02;;;;;;;2.33;1.25;;;23.10;73.80;;;;;;5022935;28;20029;-84
2022/06/28 08:52:32;;;;;;;2.45;1.63;;;23.20;73.60;;;;;;5015598;28;20050;-85
2022/06/28 08:54:59;;;;;;;6.90;2.42;;;23.30;73.60;;;;;;5009884;28;20030;-85
2022/06/28 08:57:25;;;;;;;2.33;2.22;;;23.40;73.40;;;;;;5027530;28;20110;-84
2022/06/28 08:59:51;;;;;;;1.83;1.40;;;23.50;72.90;;;;;;5025588;28;20022;-84
2022/06/28 09:02:17;;;;;;;4.32;1.65;;;23.60;73.10;;;;;;5021766;28;20088;-86
2022/06/28 09:04:49;;;;;;;2.20;1.60;;;23.80;72.20;;;;;;5023091;28;20475;-84
2022/06/28 09:07:15;;;;;;;1.60;1.50;;;23.90;70.20;;;;;;5003867;28;20045;-83
2022/06/28 09:09:40;;;;;;;2.75;1.45;;;24.00;70.50;;;;;;5021494;28;20034;-84
2022/06/28 09:12:07;;;;;;;5.55;2.33;;;24.00;70.30;;;;;;5003485;28;20026;-83
2022/06/28 09:14:34;;;;;;;1.80;1.70;;;23.80;70.60;;;;;;5022641;28;20087;-84
2022/06/28 09:17:20;;;;;;;2.70;1.85;;;23.50;72.50;;;;;;5022832;28;20026;-85
2022/06/28 09:19:45;;;;;;;4.97;1.77;;;23.20;74.00;;;;;;5040227;28;20036;-85
2022/06/28 09:22:29;;;;;;;1.90;1.67;;;23.20;73.90;;;;;;5048139;28;20025;-84
2022/06/28 09:24:55;;;;;;;2.22;2.03;;;23.10;74.20;;;;;;5049858;28;20025;-85
2022/06/28 09:27:36;;;;;;;4.07;2.00;;;23.00;74.20;;;;;;5016304;28;20018;-86
2022/06/28 09:30:05;;;;;;;1.88;1.45;;;22.90;73.60;;;;;;5026100;28;20371;-85
2022/06/28 09:32:46;;;;;;;4.53;1.73;;;22.90;74.30;;;;;;5022599;28;20029;-87
2022/06/28 09:35:12;;;;;;;1.42;1.35;;;23.00;74.60;;;;;;5046044;28;20024;-84
2022/06/28 09:37:50;;;;;;;1.83;1.40;;;23.40;74.60;;;;;;5030347;28;20045;-85
2022/06/28 09:40:22;;;;;;;1.77;1.50;;;23.80;71.50;;;;;;5052248;28;20029;-85
2022/06/28 09:43:04;;;;;;;1.63;1.50;;;23.80;71.50;;;;;;5054006;28;20073;-85
2022/06/28 09:45:29;;;;;;;2.60;1.85;;;24.00;72.30;;;;;;5053327;28;20022;-85
2022/06/28 09:47:56;;;;;;;3.40;1.40;;;24.10;69.60;;;;;;5047744;28;20052;-86
2022/06/28 09:50:25;;;;;;;3.80;1.77;;;24.10;71.20;;;;;;5027743;28;20409;-85
2022/06/28 09:52:51;;;;;;;1.67;1.58;;;24.40;70.70;;;;;;5045590;28;20474;-85
2022/06/28 09:55:42;;;;;;;2.70;1.35;;;24.60;69.40;;;;;;5045282;28;20518;-84
2022/06/28 09:58:25;;;;;;;2.63;1.50;;;24.80;69.10;;;;;;5025158;28;20054;-86
2022/06/28 10:01:10;;;;;;;2.50;1.50;;;25.00;67.60;;;;;;5002698;28;20057;-85
2022/06/28 10:03:36;;;;;;;2.20;1.30;;;24.90;65.60;;;;;;4984833;28;20035;-86
2022/06/28 10:06:04;;;;;;;2.13;1.25;;;24.80;64.10;;;;;;5030208;28;20016;-86
2022/06/28 10:08:30;;;;;;;1.70;1.60;;;24.90;64.10;;;;;;5047476;28;20029;-85
2022/06/28 10:10:56;;;;;;;4.03;1.10;;;25.00;64.60;;;;;;5047836;28;20035;-83
2022/06/28 10:16:26;;;;;;;2.78;1.65;;;25.20;64.70;;;;;;5041330;28;20089;-84
2022/06/28 10:18:54;;;;;;;1.55;1.08;;;25.30;64.90;;;;;;5040144;28;20051;-86
2022/06/28 10:21:42;;;;;;;1.60;1.50;;;25.60;63.30;;;;;;5041174;28;20071;-86
2022/06/28 10:24:08;;;;;;;1.67;1.42;;;25.30;62.90;;;;;;5003211;28;20082;-84
2022/06/28 10:26:35;;;;;;;2.75;1.10;;;25.00;64.80;;;;;;4989615;28;20065;-86
2022/06/28 10:29:09;;;;;;;1.40;1.30;;;25.00;66.10;;;;;;5024358;28;20045;-85
2022/06/28 10:31:40;;;;;;;1.10;1.10;;;25.00;64.90;;;;;;5023967;28;20153;-86
2022/06/28 10:34:22;;;;;;;1.60;1.27;;;25.10;64.60;;;;;;5021119;28;20125;-85
2022/06/28 10:36:53;;;;;;;1.63;1.50;;;25.30;63.20;;;;;;5020706;28;20025;-84
2022/06/28 10:39:23;;;;;;;2.70;1.10;;;25.50;63.70;;;;;;5002971;28;20046;-86
2022/06/28 10:41:50;;;;;;;1.75;1.65;;;25.60;62.90;;;;;;5020478;28;20102;-85
2022/06/28 10:44:43;;;;;;;1.70;1.40;;;25.50;63.10;;;;;;5021604;28;20018;-86
2022/06/28 10:47:09;;;;;;;2.35;1.60;;;25.20;64.10;;;;;;5019815;28;20030;-85
2022/06/28 10:49:46;;;;;;;2.17;1.25;;;24.80;65.20;;;;;;5022019;28;20026;-85
2022/06/28 10:52:23;;;;;;;1.60;1.50;;;24.40;66.30;;;;;;5020706;28;20045;-85
2022/06/28 10:54:52;;;;;;;2.42;1.45;;;24.20;67.60;;;;;;5021928;28;20235;-84
2022/06/28 10:57:28;;;;;;;2.00;1.55;;;24.10;67.70;;;;;;5025589;28;20026;-85
2022/06/28 10:59:55;;;;;;;1.70;1.60;;;24.00;67.20;;;;;;5022175;28;20033;-86
2022/06/28 11:02:22;;;;;;;3.38;1.50;;;23.80;68.40;;;;;;5021746;28;20517;-85
2022/06/28 11:05:09;;;;;;;1.83;1.73;;;23.70;68.50;;;;;;5002746;28;20022;-85
2022/06/28 11:07:43;;;;;;;2.88;1.65;;;23.60;69.30;;;;;;5020822;28;20442;-85
2022/06/28 11:10:18;;;;;;;4.07;1.50;;;23.40;70.80;;;;;;5003962;28;20025;-84
2022/06/28 11:13:16;;;;;;;1.92;1.60;;;23.30;71.30;;;;;;5011218;28;20033;-85
2022/06/28 11:15:42;;;;;;;2.22;1.98;;;23.10;72.40;;;;;;5026456;28;20041;-87
2022/06/28 11:18:15;;;;;;;3.00;1.85;;;23.00;73.20;;;;;;5040812;28;20374;-86
2022/06/28 11:20:40;;;;;;;1.88;1.77;;;22.90;72.60;;;;;;5040208;28;20077;-85
2022/06/28 11:23:07;;;;;;;2.15;1.70;;;22.80;73.10;;;;;;5044042;28;20049;-84
2022/06/28 11:28:20;;;;;;;2.13;2.03;;;22.90;73.70;;;;;;5026804;28;20033;-86
2022/06/28 11:30:46;;;;;;;2.25;2.00;;;23.00;72.70;;;;;;5021241;28;20030;-84
2022/06/28 11:33:12;;;;;;;1.67;1.58;;;23.00;73.00;;;;;;5004558;28;20026;-84
2022/06/28 11:35:38;;;;;;;1.85;1.45;;;23.10;73.60;;;;;;5021904;28;20394;-84
2022/06/28 11:38:06;;;;;;;3.28;1.77;;;23.20;73.40;;;;;;5022737;28;20050;-84
2022/06/28 11:40:42;;;;;;;2.15;1.92;;;23.30;71.40;;;;;;5029602;28;20046;-85
2022/06/28 11:43:13;;;;;;;1.95;1.63;;;23.10;72.40;;;;;;5026695;28;20018;-85
2022/06/28 11:45:41;;;;;;;4.68;2.00;;;22.90;73.20;;;;;;5028521;28;20097;-84
2022/06/28 11:48:13;;;;;;;2.17;1.90;;;22.80;74.60;;;;;;5025271;28;20022;-83
2022/06/28 11:50:47;;;;;;;1.92;1.77;;;22.80;74.70;;;;;;5024804;28;20036;-84
2022/06/28 11:53:15;;;;;;;3.47;1.83;;;22.80;75.50;;;;;;5009076;28;20030;-84
2022/06/28 11:55:45;;;;;;;2.58;1.90;;;22.80;75.20;;;;;;5006475;28;20112;-83
2022/06/28 11:58:19;;;;;;;4.50;2.40;;;22.80;75.70;;;;;;5006437;28;20026;-83
2022/06/28 12:01:09;;;;;;;2.25;1.95;;;22.80;75.60;;;;;;5005372;28;20057;-85
2022/06/28 12:03:42;;;;;;;1.58;1.50;;;22.80;75.70;;;;;;5032248;28;20037;-83
2022/06/28 12:06:28;;;;;;;2.95;1.80;;;22.90;76.20;;;;;;5043995;28;20024;-83
2022/06/28 12:08:58;;;;;;;4.47;1.65;;;23.00;75.60;;;;;;5025903;28;20078;-84
2022/06/28 12:11:50;;;;;;;4.72;1.95;;;22.90;76.10;;;;;;5025584;28;20033;-84
2022/06/28 12:14:22;;;;;;;3.42;2.13;;;22.90;76.00;;;;;;5024768;28;20113;-85
2022/06/28 12:16:50;;;;;;;9.57;2.60;;;22.80;76.30;;;;;;5043042;28;20033;-85
2022/06/28 12:19:30;;;;;;;2.33;1.55;;;22.70;76.70;;;;;;5022984;28;20092;-85
2022/06/28 12:22:13;;;;;;;4.13;2.22;;;22.50;77.70;;;;;;5024325;28;20022;-83
2022/06/28 12:24:41;;;;;;;2.08;1.80;;;22.50;76.90;;;;;;5026417;28;20033;-84
2022/06/28 12:27:09;;;;;;;2.97;2.28;;;22.40;77.70;;;;;;5008002;28;20014;-84
2022/06/28 12:29:34;;;;;;;3.20;2.20;;;22.50;77.20;;;;;;5029473;28;20017;-83
2022/06/28 12:32:00;;;;;;;2.95;1.45;;;22.50;77.80;;;;;;5038623;28;20082;-84
2022/06/28 12:34:26;;;;;;;2.00;1.50;;;22.50;77.20;;;;;;5038087;28;20097;-82
2022/06/28 12:36:52;;;;;;;3.38;1.90;;;22.50;76.80;;;;;;5045239;28;20029;-84
2022/06/28 12:39:17;;;;;;;3.47;1.75;;;22.40;77.60;;;;;;5051174;28;20025;-84
2022/06/28 12:41:43;;;;;;;4.70;1.80;;;22.40;76.90;;;;;;5034570;28;20087;-84
2022/06/28 12:44:09;;;;;;;1.95;1.75;;;22.40;76.70;;;;;;5051543;28;20024;-83
2022/06/28 12:46:35;;;;;;;1.42;1.33;;;22.40;77.80;;;;;;5048163;28;20021;-84
2022/06/28 12:49:01;;;;;;;1.60;1.50;;;22.40;78.20;;;;;;5052495;28;20026;-83
2022/06/28 12:51:27;;;;;;;10.15;2.25;;;22.40;78.20;;;;;;5053904;28;20112;-84
2022/06/28 12:53:53;;;;;;;3.75;2.10;;;22.50;77.70;;;;;;5024768;28;20037;-83
2022/06/28 12:56:19;;;;;;;3.80;1.95;;;22.40;77.30;;;;;;5012592;28;20030;-84
2022/06/28 12:58:47;;;;;;;3.03;1.67;;;22.30;77.90;;;;;;5012763;28;20046;-83
2022/06/28 13:01:13;;;;;;;2.00;1.50;;;22.30;78.40;;;;;;5032192;28;20022;-84
2022/06/28 13:03:40;;;;;;;2.53;1.58;;;22.30;78.90;;;;;;5016149;28;20022;-83
2022/06/28 13:06:12;;;;;;;2.55;1.90;;;22.20;78.70;;;;;;5034422;28;20029;-82
2022/06/28 13:08:57;;;;;;;2.95;1.65;;;22.20;78.60;;;;;;5034131;28;20030;-83